sensor_id;sensor_type;location;lat;lon;timestamp;temperature;humidity
17495;DHT22;8864;51.970;4.614;2023-02-12T00:01:38;14.90;74.70
17495;DHT22;8864;51.970;4.614;2023-02-12T00:04:06;14.90;74.70
17495;DHT22;8864;51.970;4.614;2023-02-12T00:06:34;14.90;74.70
17495;DHT22;8864;51.970;4.614;2023-02-12T00:09:02;14.90;75.40
17495;DHT22;8864;51.970;4.614;2023-02-12T00:11:31;14.90;74.70
17495;DHT22;8864;51.970;4.614;2023-02-12T00:14:01;14.90;74.70
17495;DHT22;8864;51.970;4.614;2023-02-12T00:16:37;14.90;74.60
17495;DHT22;8864;51.970;4.614;2023-02-12T00:19:11;14.90;74.60
17495;DHT22;8864;51.970;4.614;2023-02-12T00:21:38;14.90;74.60
17495;DHT22;8864;51.970;4.614;2023-02-12T00:24:10;14.90;74.60
17495;DHT22;8864;51.970;4.614;2023-02-12T00:26:37;14.90;74.50
17495;DHT22;8864;51.970;4.614;2023-02-12T00:29:11;14.90;74.50
17495;DHT22;8864;51.970;4.614;2023-02-12T00:31:39;14.90;74.50
17495;DHT22;8864;51.970;4.614;2023-02-12T00:34:08;14.90;74.60
17495;DHT22;8864;51.970;4.614;2023-02-12T00:36:39;14.90;74.50
17495;DHT22;8864;51.970;4.614;2023-02-12T00:39:15;14.90;74.50
17495;DHT22;8864;51.970;4.614;2023-02-12T00:41:42;14.90;74.40
17495;DHT22;8864;51.970;4.614;2023-02-12T00:44:12;14.90;74.40
17495;DHT22;8864;51.970;4.614;2023-02-12T00:46:44;14.90;74.40
17495;DHT22;8864;51.970;4.614;2023-02-12T00:49:11;14.90;74.40
17495;DHT22;8864;51.970;4.614;2023-02-12T00:51:38;14.90;74.40
17495;DHT22;8864;51.970;4.614;2023-02-12T00:54:06;14.90;74.40
17495;DHT22;8864;51.970;4.614;2023-02-12T00:56:35;14.90;74.30
17495;DHT22;8864;51.970;4.614;2023-02-12T00:59:02;14.90;74.30
17495;DHT22;8864;51.970;4.614;2023-02-12T01:01:30;14.90;74.30
17495;DHT22;8864;51.970;4.614;2023-02-12T01:04:00;14.90;74.30
17495;DHT22;8864;51.970;4.614;2023-02-12T01:06:30;14.90;74.30
17495;DHT22;8864;51.970;4.614;2023-02-12T01:09:17;14.90;74.60
17495;DHT22;8864;51.970;4.614;2023-02-12T01:11:46;14.90;74.60
17495;DHT22;8864;51.970;4.614;2023-02-12T01:14:16;14.90;74.60
17495;DHT22;8864;51.970;4.614;2023-02-12T01:16:44;14.90;74.50
17495;DHT22;8864;51.970;4.614;2023-02-12T01:19:13;14.90;74.50
17495;DHT22;8864;51.970;4.614;2023-02-12T01:21:42;14.90;74.50
17495;DHT22;8864;51.970;4.614;2023-02-12T01:24:10;14.90;74.50
17495;DHT22;8864;51.970;4.614;2023-02-12T01:26:37;14.90;74.50
17495;DHT22;8864;51.970;4.614;2023-02-12T01:29:07;15.00;74.50
17495;DHT22;8864;51.970;4.614;2023-02-12T01:31:42;14.90;74.40
17495;DHT22;8864;51.970;4.614;2023-02-12T01:34:10;15.00;74.50
17495;DHT22;8864;51.970;4.614;2023-02-12T01:36:38;14.90;74.40
17495;DHT22;8864;51.970;4.614;2023-02-12T01:39:06;14.90;74.40
17495;DHT22;8864;51.970;4.614;2023-02-12T01:41:39;14.90;74.40
17495;DHT22;8864;51.970;4.614;2023-02-12T01:44:27;15.00;74.40
17495;DHT22;8864;51.970;4.614;2023-02-12T01:46:55;15.00;74.40
17495;DHT22;8864;51.970;4.614;2023-02-12T01:49:31;14.90;74.30
17495;DHT22;8864;51.970;4.614;2023-02-12T01:52:09;15.00;74.30
17495;DHT22;8864;51.970;4.614;2023-02-12T01:54:40;15.00;74.30
17495;DHT22;8864;51.970;4.614;2023-02-12T01:57:10;15.00;74.30
17495;DHT22;8864;51.970;4.614;2023-02-12T01:59:42;15.00;74.30
17495;DHT22;8864;51.970;4.614;2023-02-12T02:02:11;14.90;74.30
17495;DHT22;8864;51.970;4.614;2023-02-12T02:04:40;15.00;74.30
17495;DHT22;8864;51.970;4.614;2023-02-12T02:07:10;15.00;74.30
17495;DHT22;8864;51.970;4.614;2023-02-12T02:09:41;15.00;74.30
17495;DHT22;8864;51.970;4.614;2023-02-12T02:12:12;15.00;74.20
17495;DHT22;8864;51.970;4.614;2023-02-12T02:14:58;15.00;74.20
17495;DHT22;8864;51.970;4.614;2023-02-12T02:17:50;15.00;74.20
17495;DHT22;8864;51.970;4.614;2023-02-12T02:20:47;15.00;74.20
17495;DHT22;8864;51.970;4.614;2023-02-12T02:23:52;15.00;74.10
17495;DHT22;8864;51.970;4.614;2023-02-12T02:32:45;15.00;74.10
17495;DHT22;8864;51.970;4.614;2023-02-12T02:35:19;15.00;74.10
17495;DHT22;8864;51.970;4.614;2023-02-12T02:37:58;15.00;74.10
17495;DHT22;8864;51.970;4.614;2023-02-12T02:40:38;15.00;74.10
17495;DHT22;8864;51.970;4.614;2023-02-12T02:43:14;15.00;74.00
17495;DHT22;8864;51.970;4.614;2023-02-12T02:45:50;15.00;74.10
17495;DHT22;8864;51.970;4.614;2023-02-12T02:48:23;15.00;74.10
17495;DHT22;8864;51.970;4.614;2023-02-12T02:50:56;15.00;74.10
17495;DHT22;8864;51.970;4.614;2023-02-12T02:53:27;15.00;74.10
17495;DHT22;8864;51.970;4.614;2023-02-12T02:56:00;15.00;74.00
17495;DHT22;8864;51.970;4.614;2023-02-12T02:58:31;15.00;74.00
17495;DHT22;8864;51.970;4.614;2023-02-12T03:01:02;15.00;74.00
17495;DHT22;8864;51.970;4.614;2023-02-12T03:03:40;15.00;73.90
17495;DHT22;8864;51.970;4.614;2023-02-12T03:06:16;15.00;73.90
17495;DHT22;8864;51.970;4.614;2023-02-12T03:08:51;15.00;73.90
17495;DHT22;8864;51.970;4.614;2023-02-12T03:11:26;15.00;73.90
17495;DHT22;8864;51.970;4.614;2023-02-12T03:13:58;15.00;73.90
17495;DHT22;8864;51.970;4.614;2023-02-12T03:16:28;15.00;73.90
17495;DHT22;8864;51.970;4.614;2023-02-12T03:19:07;15.00;73.80
17495;DHT22;8864;51.970;4.614;2023-02-12T03:21:40;15.00;73.80
17495;DHT22;8864;51.970;4.614;2023-02-12T03:24:12;15.00;73.80
17495;DHT22;8864;51.970;4.614;2023-02-12T03:26:46;15.00;73.70
17495;DHT22;8864;51.970;4.614;2023-02-12T03:29:17;15.00;73.70
17495;DHT22;8864;51.970;4.614;2023-02-12T03:31:57;15.00;73.60
17495;DHT22;8864;51.970;4.614;2023-02-12T03:34:33;15.00;73.70
17495;DHT22;8864;51.970;4.614;2023-02-12T03:37:04;15.00;73.70
17495;DHT22;8864;51.970;4.614;2023-02-12T03:39:44;15.00;73.60
17495;DHT22;8864;51.970;4.614;2023-02-12T03:42:15;15.00;73.60
17495;DHT22;8864;51.970;4.614;2023-02-12T03:44:49;15.00;73.60
17495;DHT22;8864;51.970;4.614;2023-02-12T03:47:24;15.00;73.50
17495;DHT22;8864;51.970;4.614;2023-02-12T03:49:59;15.10;73.60
17495;DHT22;8864;51.970;4.614;2023-02-12T03:52:35;15.10;73.60
17495;DHT22;8864;51.970;4.614;2023-02-12T03:55:06;15.10;73.50
17495;DHT22;8864;51.970;4.614;2023-02-12T03:57:40;15.00;73.50
17495;DHT22;8864;51.970;4.614;2023-02-12T04:00:15;15.10;73.50
17495;DHT22;8864;51.970;4.614;2023-02-12T04:02:43;15.10;73.50
17495;DHT22;8864;51.970;4.614;2023-02-12T04:05:23;15.00;73.40
17495;DHT22;8864;51.970;4.614;2023-02-12T04:07:51;15.10;73.50
17495;DHT22;8864;51.970;4.614;2023-02-12T04:10:48;15.10;73.50
17495;DHT22;8864;51.970;4.614;2023-02-12T04:13:27;15.00;73.50
17495;DHT22;8864;51.970;4.614;2023-02-12T04:16:16;15.10;73.50
17495;DHT22;8864;51.970;4.614;2023-02-12T04:18:47;15.10;73.50
17495;DHT22;8864;51.970;4.614;2023-02-12T04:21:25;15.00;73.40
17495;DHT22;8864;51.970;4.614;2023-02-12T04:24:04;15.00;73.40
17495;DHT22;8864;51.970;4.614;2023-02-12T04:26:36;15.00;73.40
17495;DHT22;8864;51.970;4.614;2023-02-12T04:29:15;15.10;73.50
17495;DHT22;8864;51.970;4.614;2023-02-12T04:31:55;15.10;73.50
17495;DHT22;8864;51.970;4.614;2023-02-12T04:34:30;15.10;73.50
17495;DHT22;8864;51.970;4.614;2023-02-12T04:37:05;15.00;73.40
17495;DHT22;8864;51.970;4.614;2023-02-12T04:39:36;15.10;73.50
17495;DHT22;8864;51.970;4.614;2023-02-12T04:42:10;15.00;73.40
17495;DHT22;8864;51.970;4.614;2023-02-12T04:44:46;15.10;73.50
17495;DHT22;8864;51.970;4.614;2023-02-12T04:47:15;15.10;73.50
17495;DHT22;8864;51.970;4.614;2023-02-12T04:49:43;15.10;73.50
17495;DHT22;8864;51.970;4.614;2023-02-12T04:52:13;15.10;73.30
17495;DHT22;8864;51.970;4.614;2023-02-12T04:54:40;15.10;73.30
17495;DHT22;8864;51.970;4.614;2023-02-12T04:57:08;15.10;73.30
17495;DHT22;8864;51.970;4.614;2023-02-12T04:59:35;15.10;73.30
17495;DHT22;8864;51.970;4.614;2023-02-12T05:02:02;15.10;73.30
17495;DHT22;8864;51.970;4.614;2023-02-12T05:04:45;15.10;73.20
17495;DHT22;8864;51.970;4.614;2023-02-12T05:07:16;15.10;73.20
17495;DHT22;8864;51.970;4.614;2023-02-12T05:09:43;15.10;73.20
17495;DHT22;8864;51.970;4.614;2023-02-12T05:12:11;15.10;73.20
17495;DHT22;8864;51.970;4.614;2023-02-12T05:14:42;15.10;73.20
17495;DHT22;8864;51.970;4.614;2023-02-12T05:17:09;15.10;73.20
17495;DHT22;8864;51.970;4.614;2023-02-12T05:19:37;15.10;73.30
17495;DHT22;8864;51.970;4.614;2023-02-12T05:22:09;15.10;73.30
17495;DHT22;8864;51.970;4.614;2023-02-12T05:24:46;15.10;73.20
17495;DHT22;8864;51.970;4.614;2023-02-12T05:27:13;15.10;73.20
17495;DHT22;8864;51.970;4.614;2023-02-12T05:29:42;15.10;73.20
17495;DHT22;8864;51.970;4.614;2023-02-12T05:32:17;15.10;73.20
17495;DHT22;8864;51.970;4.614;2023-02-12T05:34:47;15.10;73.20
17495;DHT22;8864;51.970;4.614;2023-02-12T05:37:15;15.10;73.20
17495;DHT22;8864;51.970;4.614;2023-02-12T05:39:47;15.10;73.20
17495;DHT22;8864;51.970;4.614;2023-02-12T05:42:14;15.10;73.20
17495;DHT22;8864;51.970;4.614;2023-02-12T05:44:42;15.10;73.10
17495;DHT22;8864;51.970;4.614;2023-02-12T05:47:15;15.10;73.10
17495;DHT22;8864;51.970;4.614;2023-02-12T05:49:42;15.10;73.00
17495;DHT22;8864;51.970;4.614;2023-02-12T05:52:12;15.10;73.00
17495;DHT22;8864;51.970;4.614;2023-02-12T05:54:43;15.10;73.00
17495;DHT22;8864;51.970;4.614;2023-02-12T05:57:12;15.10;72.90
17495;DHT22;8864;51.970;4.614;2023-02-12T05:59:40;15.10;72.90
17495;DHT22;8864;51.970;4.614;2023-02-12T06:02:07;15.10;72.90
17495;DHT22;8864;51.970;4.614;2023-02-12T06:04:38;15.10;72.90
17495;DHT22;8864;51.970;4.614;2023-02-12T06:07:08;15.10;72.90
17495;DHT22;8864;51.970;4.614;2023-02-12T06:09:36;15.10;72.80
17495;DHT22;8864;51.970;4.614;2023-02-12T06:12:05;15.10;72.80
17495;DHT22;8864;51.970;4.614;2023-02-12T06:14:32;15.10;72.80
17495;DHT22;8864;51.970;4.614;2023-02-12T06:16:59;15.10;72.70
17495;DHT22;8864;51.970;4.614;2023-02-12T06:19:26;15.10;72.70
17495;DHT22;8864;51.970;4.614;2023-02-12T06:21:53;15.10;72.70
17495;DHT22;8864;51.970;4.614;2023-02-12T06:24:20;15.10;72.70
17495;DHT22;8864;51.970;4.614;2023-02-12T06:26:49;15.10;72.70
17495;DHT22;8864;51.970;4.614;2023-02-12T06:29:23;15.10;72.70
17495;DHT22;8864;51.970;4.614;2023-02-12T06:31:50;15.10;72.90
17495;DHT22;8864;51.970;4.614;2023-02-12T06:34:20;15.10;72.80
17495;DHT22;8864;51.970;4.614;2023-02-12T06:36:47;15.10;72.70
17495;DHT22;8864;51.970;4.614;2023-02-12T06:39:16;15.10;72.60
17495;DHT22;8864;51.970;4.614;2023-02-12T06:41:43;15.10;72.60
17495;DHT22;8864;51.970;4.614;2023-02-12T06:44:11;15.10;72.70
17495;DHT22;8864;51.970;4.614;2023-02-12T06:46:40;15.10;72.70
17495;DHT22;8864;51.970;4.614;2023-02-12T06:49:16;15.10;72.60
17495;DHT22;8864;51.970;4.614;2023-02-12T06:51:46;15.10;72.60
17495;DHT22;8864;51.970;4.614;2023-02-12T06:54:16;15.10;72.50
17495;DHT22;8864;51.970;4.614;2023-02-12T06:56:44;15.10;72.50
17495;DHT22;8864;51.970;4.614;2023-02-12T06:59:13;15.10;72.40
17495;DHT22;8864;51.970;4.614;2023-02-12T07:01:42;15.10;72.40
17495;DHT22;8864;51.970;4.614;2023-02-12T07:04:10;15.10;72.40
17495;DHT22;8864;51.970;4.614;2023-02-12T07:06:39;15.10;72.30
17495;DHT22;8864;51.970;4.614;2023-02-12T07:09:07;15.10;72.30
17495;DHT22;8864;51.970;4.614;2023-02-12T07:11:36;15.10;72.30
17495;DHT22;8864;51.970;4.614;2023-02-12T07:14:06;15.10;72.20
17495;DHT22;8864;51.970;4.614;2023-02-12T07:16:33;15.10;72.20
17495;DHT22;8864;51.970;4.614;2023-02-12T07:19:02;15.10;72.20
17495;DHT22;8864;51.970;4.614;2023-02-12T07:21:29;15.10;72.10
17495;DHT22;8864;51.970;4.614;2023-02-12T07:23:56;15.10;72.10
17495;DHT22;8864;51.970;4.614;2023-02-12T07:26:23;15.10;72.10
17495;DHT22;8864;51.970;4.614;2023-02-12T07:28:51;15.10;72.00
17495;DHT22;8864;51.970;4.614;2023-02-12T07:31:19;15.10;72.00
17495;DHT22;8864;51.970;4.614;2023-02-12T07:33:48;15.10;72.00
17495;DHT22;8864;51.970;4.614;2023-02-12T07:36:19;15.10;72.00
17495;DHT22;8864;51.970;4.614;2023-02-12T07:38:52;15.10;71.90
17495;DHT22;8864;51.970;4.614;2023-02-12T07:41:21;15.10;71.90
17495;DHT22;8864;51.970;4.614;2023-02-12T07:43:53;15.10;71.80
17495;DHT22;8864;51.970;4.614;2023-02-12T07:46:22;15.10;71.80
17495;DHT22;8864;51.970;4.614;2023-02-12T07:48:52;15.10;71.80
17495;DHT22;8864;51.970;4.614;2023-02-12T07:51:21;15.10;71.70
17495;DHT22;8864;51.970;4.614;2023-02-12T07:53:51;15.10;71.70
17495;DHT22;8864;51.970;4.614;2023-02-12T07:56:21;15.10;71.70
17495;DHT22;8864;51.970;4.614;2023-02-12T07:58:50;15.20;71.70
17495;DHT22;8864;51.970;4.614;2023-02-12T08:01:25;15.10;71.60
17495;DHT22;8864;51.970;4.614;2023-02-12T08:03:53;15.10;71.60
17495;DHT22;8864;51.970;4.614;2023-02-12T08:06:24;15.10;71.60
17495;DHT22;8864;51.970;4.614;2023-02-12T08:08:52;15.20;71.60
17495;DHT22;8864;51.970;4.614;2023-02-12T08:11:20;15.20;71.60
17495;DHT22;8864;51.970;4.614;2023-02-12T08:13:47;15.20;71.60
17495;DHT22;8864;51.970;4.614;2023-02-12T08:16:16;15.20;71.60
17495;DHT22;8864;51.970;4.614;2023-02-12T08:18:43;15.20;71.60
17495;DHT22;8864;51.970;4.614;2023-02-12T08:21:12;15.20;71.70
17495;DHT22;8864;51.970;4.614;2023-02-12T08:23:46;15.20;71.60
17495;DHT22;8864;51.970;4.614;2023-02-12T08:26:17;15.20;71.60
17495;DHT22;8864;51.970;4.614;2023-02-12T08:28:50;15.20;71.60
17495;DHT22;8864;51.970;4.614;2023-02-12T08:31:19;15.20;71.70
17495;DHT22;8864;51.970;4.614;2023-02-12T08:33:48;15.20;71.70
17495;DHT22;8864;51.970;4.614;2023-02-12T08:36:19;15.20;71.60
17495;DHT22;8864;51.970;4.614;2023-02-12T08:38:48;15.20;71.60
17495;DHT22;8864;51.970;4.614;2023-02-12T08:41:17;15.20;71.50
17495;DHT22;8864;51.970;4.614;2023-02-12T08:43:44;15.20;71.50
17495;DHT22;8864;51.970;4.614;2023-02-12T08:46:18;15.30;71.90
17495;DHT22;8864;51.970;4.614;2023-02-12T08:48:46;15.20;71.60
17495;DHT22;8864;51.970;4.614;2023-02-12T08:51:15;15.30;71.70
17495;DHT22;8864;51.970;4.614;2023-02-12T08:53:45;15.30;71.60
17495;DHT22;8864;51.970;4.614;2023-02-12T08:56:16;15.30;71.50
17495;DHT22;8864;51.970;4.614;2023-02-12T08:58:44;15.20;71.40
17495;DHT22;8864;51.970;4.614;2023-02-12T09:01:15;15.30;71.50
17495;DHT22;8864;51.970;4.614;2023-02-12T09:03:43;15.30;71.40
17495;DHT22;8864;51.970;4.614;2023-02-12T09:06:20;15.30;71.30
17495;DHT22;8864;51.970;4.614;2023-02-12T09:08:51;15.30;71.50
17495;DHT22;8864;51.970;4.614;2023-02-12T09:11:25;15.30;71.70
17495;DHT22;8864;51.970;4.614;2023-02-12T09:13:58;15.30;72.10
17495;DHT22;8864;51.970;4.614;2023-02-12T09:16:26;15.30;72.10
17495;DHT22;8864;51.970;4.614;2023-02-12T09:18:56;15.30;72.00
17495;DHT22;8864;51.970;4.614;2023-02-12T09:21:23;15.40;72.00
17495;DHT22;8864;51.970;4.614;2023-02-12T09:23:50;15.40;71.80
17495;DHT22;8864;51.970;4.614;2023-02-12T09:26:21;15.40;71.80
17495;DHT22;8864;51.970;4.614;2023-02-12T09:28:50;15.40;71.70
17495;DHT22;8864;51.970;4.614;2023-02-12T09:31:20;15.40;71.60
17495;DHT22;8864;51.970;4.614;2023-02-12T09:33:54;15.40;71.50
17495;DHT22;8864;51.970;4.614;2023-02-12T09:36:26;15.40;71.50
17495;DHT22;8864;51.970;4.614;2023-02-12T09:38:54;15.40;71.40
17495;DHT22;8864;51.970;4.614;2023-02-12T09:44:38;15.40;71.20
17495;DHT22;8864;51.970;4.614;2023-02-12T09:47:19;15.40;71.20
17495;DHT22;8864;51.970;4.614;2023-02-12T09:50:00;15.40;71.10
17495;DHT22;8864;51.970;4.614;2023-02-12T09:52:33;15.40;71.00
17495;DHT22;8864;51.970;4.614;2023-02-12T09:55:02;15.40;71.70
17495;DHT22;8864;51.970;4.614;2023-02-12T09:57:33;15.40;70.90
17495;DHT22;8864;51.970;4.614;2023-02-12T10:00:05;15.40;70.80
17495;DHT22;8864;51.970;4.614;2023-02-12T10:02:34;15.40;70.70
17495;DHT22;8864;51.970;4.614;2023-02-12T10:05:03;15.40;71.00
17495;DHT22;8864;51.970;4.614;2023-02-12T10:07:51;15.50;70.60
17495;DHT22;8864;51.970;4.614;2023-02-12T10:10:30;15.50;70.60
17495;DHT22;8864;51.970;4.614;2023-02-12T10:13:04;15.50;70.40
17495;DHT22;8864;51.970;4.614;2023-02-12T10:15:42;15.50;70.40
17495;DHT22;8864;51.970;4.614;2023-02-12T10:18:34;15.50;70.30
17495;DHT22;8864;51.970;4.614;2023-02-12T10:21:09;15.50;70.70
17495;DHT22;8864;51.970;4.614;2023-02-12T10:24:10;15.50;70.70
17495;DHT22;8864;51.970;4.614;2023-02-12T10:26:41;15.50;70.70
17495;DHT22;8864;51.970;4.614;2023-02-12T10:29:16;15.50;70.60
17495;DHT22;8864;51.970;4.614;2023-02-12T10:31:54;15.50;70.60
17495;DHT22;8864;51.970;4.614;2023-02-12T10:34:26;15.50;70.60
17495;DHT22;8864;51.970;4.614;2023-02-12T10:37:02;15.60;70.60
17495;DHT22;8864;51.970;4.614;2023-02-12T10:39:34;15.60;70.40
17495;DHT22;8864;51.970;4.614;2023-02-12T10:42:10;15.60;70.40
17495;DHT22;8864;51.970;4.614;2023-02-12T10:44:48;15.60;70.30
17495;DHT22;8864;51.970;4.614;2023-02-12T10:47:21;15.60;70.20
17495;DHT22;8864;51.970;4.614;2023-02-12T10:49:55;15.60;70.10
17495;DHT22;8864;51.970;4.614;2023-02-12T10:52:38;15.60;70.10
17495;DHT22;8864;51.970;4.614;2023-02-12T10:55:33;15.60;70.00
17495;DHT22;8864;51.970;4.614;2023-02-12T10:58:04;15.60;70.00
17495;DHT22;8864;51.970;4.614;2023-02-12T11:00:56;15.60;70.00
17495;DHT22;8864;51.970;4.614;2023-02-12T11:03:34;15.60;70.00
17495;DHT22;8864;51.970;4.614;2023-02-12T11:06:29;15.70;69.90
17495;DHT22;8864;51.970;4.614;2023-02-12T11:08:58;15.70;69.80
17495;DHT22;8864;51.970;4.614;2023-02-12T11:11:27;15.70;69.80
17495;DHT22;8864;51.970;4.614;2023-02-12T11:13:59;15.70;69.70
17495;DHT22;8864;51.970;4.614;2023-02-12T11:16:30;15.70;69.60
17495;DHT22;8864;51.970;4.614;2023-02-12T11:19:07;15.70;69.60
17495;DHT22;8864;51.970;4.614;2023-02-12T11:21:37;15.70;69.50
17495;DHT22;8864;51.970;4.614;2023-02-12T11:24:20;15.70;69.40
17495;DHT22;8864;51.970;4.614;2023-02-12T11:26:47;15.70;69.40
17495;DHT22;8864;51.970;4.614;2023-02-12T11:29:19;15.70;69.40
17495;DHT22;8864;51.970;4.614;2023-02-12T11:31:59;15.70;69.40
17495;DHT22;8864;51.970;4.614;2023-02-12T11:34:29;15.70;69.30
17495;DHT22;8864;51.970;4.614;2023-02-12T11:36:57;15.70;69.30
17495;DHT22;8864;51.970;4.614;2023-02-12T11:39:27;15.70;69.30
17495;DHT22;8864;51.970;4.614;2023-02-12T11:41:56;15.70;69.30
17495;DHT22;8864;51.970;4.614;2023-02-12T11:44:27;15.70;69.20
17495;DHT22;8864;51.970;4.614;2023-02-12T11:46:58;15.70;69.20
17495;DHT22;8864;51.970;4.614;2023-02-12T11:49:31;15.70;69.20
17495;DHT22;8864;51.970;4.614;2023-02-12T11:52:03;15.70;69.20
17495;DHT22;8864;51.970;4.614;2023-02-12T11:54:45;15.70;69.20
17495;DHT22;8864;51.970;4.614;2023-02-12T11:57:34;15.70;69.10
17495;DHT22;8864;51.970;4.614;2023-02-12T12:00:10;15.70;69.10
17495;DHT22;8864;51.970;4.614;2023-02-12T12:02:38;15.70;69.00
17495;DHT22;8864;51.970;4.614;2023-02-12T12:05:13;15.70;69.80
17495;DHT22;8864;51.970;4.614;2023-02-12T12:07:48;15.70;69.00
17495;DHT22;8864;51.970;4.614;2023-02-12T12:10:20;15.70;69.00
17495;DHT22;8864;51.970;4.614;2023-02-12T12:12:54;15.70;68.90
17495;DHT22;8864;51.970;4.614;2023-02-12T12:15:25;15.70;68.90
17495;DHT22;8864;51.970;4.614;2023-02-12T12:18:22;15.70;68.80
17495;DHT22;8864;51.970;4.614;2023-02-12T12:21:14;15.70;68.70
17495;DHT22;8864;51.970;4.614;2023-02-12T12:23:50;15.70;68.70
17495;DHT22;8864;51.970;4.614;2023-02-12T12:26:22;15.70;68.70
17495;DHT22;8864;51.970;4.614;2023-02-12T12:28:59;15.70;68.60
17495;DHT22;8864;51.970;4.614;2023-02-12T12:31:34;15.70;68.60
17495;DHT22;8864;51.970;4.614;2023-02-12T12:34:08;15.70;68.60
17495;DHT22;8864;51.970;4.614;2023-02-12T12:39:45;15.70;68.70
17495;DHT22;8864;51.970;4.614;2023-02-12T12:42:29;15.70;69.00
17495;DHT22;8864;51.970;4.614;2023-02-12T12:45:16;15.70;69.20
17495;DHT22;8864;51.970;4.614;2023-02-12T12:47:57;15.70;69.60
17495;DHT22;8864;51.970;4.614;2023-02-12T12:50:38;15.70;70.90
17495;DHT22;8864;51.970;4.614;2023-02-12T12:53:27;15.70;70.40
17495;DHT22;8864;51.970;4.614;2023-02-12T12:56:35;15.70;70.90
17495;DHT22;8864;51.970;4.614;2023-02-12T12:59:26;15.80;71.30
17495;DHT22;8864;51.970;4.614;2023-02-12T13:02:16;15.80;71.60
17495;DHT22;8864;51.970;4.614;2023-02-12T13:05:18;15.70;71.80
17495;DHT22;8864;51.970;4.614;2023-02-12T13:07:59;15.80;72.30
17495;DHT22;8864;51.970;4.614;2023-02-12T13:10:33;15.70;72.40
17495;DHT22;8864;51.970;4.614;2023-02-12T13:13:23;15.70;72.60
17495;DHT22;8864;51.970;4.614;2023-02-12T13:15:57;15.80;72.90
17495;DHT22;8864;51.970;4.614;2023-02-12T13:18:39;15.80;73.00
17495;DHT22;8864;51.970;4.614;2023-02-12T13:21:21;15.70;73.20
17495;DHT22;8864;51.970;4.614;2023-02-12T13:24:02;15.80;73.30
17495;DHT22;8864;51.970;4.614;2023-02-12T13:26:44;15.80;73.50
17495;DHT22;8864;51.970;4.614;2023-02-12T13:29:18;15.80;73.60
17495;DHT22;8864;51.970;4.614;2023-02-12T13:31:48;15.80;73.70
17495;DHT22;8864;51.970;4.614;2023-02-12T13:34:18;15.80;73.90
17495;DHT22;8864;51.970;4.614;2023-02-12T13:36:48;15.80;73.90
17495;DHT22;8864;51.970;4.614;2023-02-12T13:39:25;15.80;74.00
17495;DHT22;8864;51.970;4.614;2023-02-12T13:42:07;15.80;74.10
17495;DHT22;8864;51.970;4.614;2023-02-12T13:44:56;15.80;74.20
17495;DHT22;8864;51.970;4.614;2023-02-12T13:47:43;15.80;74.30
17495;DHT22;8864;51.970;4.614;2023-02-12T13:50:30;15.80;74.40
17495;DHT22;8864;51.970;4.614;2023-02-12T13:53:05;15.80;74.60
17495;DHT22;8864;51.970;4.614;2023-02-12T13:55:36;15.80;74.70
17495;DHT22;8864;51.970;4.614;2023-02-12T13:58:39;15.80;74.70
17495;DHT22;8864;51.970;4.614;2023-02-12T14:01:11;15.90;74.90
17495;DHT22;8864;51.970;4.614;2023-02-12T14:03:43;15.80;74.90
17495;DHT22;8864;51.970;4.614;2023-02-12T14:06:19;15.90;75.00
17495;DHT22;8864;51.970;4.614;2023-02-12T14:08:51;15.80;75.00
17495;DHT22;8864;51.970;4.614;2023-02-12T14:11:21;15.90;75.10
17495;DHT22;8864;51.970;4.614;2023-02-12T14:14:03;15.80;75.20
17495;DHT22;8864;51.970;4.614;2023-02-12T14:16:39;15.80;75.20
17495;DHT22;8864;51.970;4.614;2023-02-12T14:22:12;15.80;75.20
17495;DHT22;8864;51.970;4.614;2023-02-12T14:24:51;15.80;75.20
17495;DHT22;8864;51.970;4.614;2023-02-12T14:27:43;15.80;75.20
17495;DHT22;8864;51.970;4.614;2023-02-12T14:30:30;15.90;75.30
17495;DHT22;8864;51.970;4.614;2023-02-12T14:33:20;15.90;75.20
17495;DHT22;8864;51.970;4.614;2023-02-12T14:35:48;15.80;75.00
17495;DHT22;8864;51.970;4.614;2023-02-12T14:44:47;15.80;74.60
17495;DHT22;8864;51.970;4.614;2023-02-12T14:47:48;15.80;74.50
17495;DHT22;8864;51.970;4.614;2023-02-12T14:50:29;15.80;74.40
17495;DHT22;8864;51.970;4.614;2023-02-12T14:53:04;15.90;74.40
17495;DHT22;8864;51.970;4.614;2023-02-12T14:55:33;15.80;74.70
17495;DHT22;8864;51.970;4.614;2023-02-12T14:58:05;15.80;74.60
17495;DHT22;8864;51.970;4.614;2023-02-12T15:00:46;15.80;74.40
17495;DHT22;8864;51.970;4.614;2023-02-12T15:03:22;15.80;74.10
17495;DHT22;8864;51.970;4.614;2023-02-12T15:06:02;15.80;73.90
17495;DHT22;8864;51.970;4.614;2023-02-12T15:08:47;15.80;73.90
17495;DHT22;8864;51.970;4.614;2023-02-12T15:11:35;15.80;73.90
17495;DHT22;8864;51.970;4.614;2023-02-12T15:14:06;15.80;73.70
17495;DHT22;8864;51.970;4.614;2023-02-12T15:16:46;15.80;73.60
17495;DHT22;8864;51.970;4.614;2023-02-12T15:19:33;15.80;73.60
17495;DHT22;8864;51.970;4.614;2023-02-12T15:22:24;15.80;73.50
17495;DHT22;8864;51.970;4.614;2023-02-12T15:25:13;15.80;73.50
17495;DHT22;8864;51.970;4.614;2023-02-12T15:27:43;15.80;73.50
17495;DHT22;8864;51.970;4.614;2023-02-12T15:30:15;15.80;73.90
17495;DHT22;8864;51.970;4.614;2023-02-12T15:32:43;15.80;73.90
17495;DHT22;8864;51.970;4.614;2023-02-12T15:35:24;15.80;73.90
17495;DHT22;8864;51.970;4.614;2023-02-12T15:37:56;15.80;73.70
17495;DHT22;8864;51.970;4.614;2023-02-12T15:40:25;15.80;73.60
17495;DHT22;8864;51.970;4.614;2023-02-12T15:42:56;15.80;73.50
17495;DHT22;8864;51.970;4.614;2023-02-12T15:45:25;15.80;73.50
17495;DHT22;8864;51.970;4.614;2023-02-12T15:48:11;15.80;73.30
17495;DHT22;8864;51.970;4.614;2023-02-12T15:50:53;15.80;73.30
17495;DHT22;8864;51.970;4.614;2023-02-12T15:53:25;15.80;73.30
17495;DHT22;8864;51.970;4.614;2023-02-12T15:55:58;15.80;73.30
17495;DHT22;8864;51.970;4.614;2023-02-12T15:58:28;15.70;73.20
17495;DHT22;8864;51.970;4.614;2023-02-12T16:01:00;15.70;73.10
17495;DHT22;8864;51.970;4.614;2023-02-12T16:03:33;15.70;73.10
17495;DHT22;8864;51.970;4.614;2023-02-12T16:06:03;15.80;73.20
17495;DHT22;8864;51.970;4.614;2023-02-12T16:08:38;15.70;73.00
17495;DHT22;8864;51.970;4.614;2023-02-12T16:11:07;15.70;73.00
17495;DHT22;8864;51.970;4.614;2023-02-12T16:13:42;15.70;73.00
17495;DHT22;8864;51.970;4.614;2023-02-12T16:16:19;15.70;73.00
17495;DHT22;8864;51.970;4.614;2023-02-12T16:19:05;15.70;73.10
17495;DHT22;8864;51.970;4.614;2023-02-12T16:21:36;15.70;73.00
17495;DHT22;8864;51.970;4.614;2023-02-12T16:24:20;15.70;73.00
17495;DHT22;8864;51.970;4.614;2023-02-12T16:26:50;15.70;73.20
17495;DHT22;8864;51.970;4.614;2023-02-12T16:29:18;15.70;73.40
17495;DHT22;8864;51.970;4.614;2023-02-12T16:31:54;15.70;73.50
17495;DHT22;8864;51.970;4.614;2023-02-12T16:34:29;15.70;73.40
17495;DHT22;8864;51.970;4.614;2023-02-12T16:36:59;15.70;73.40
17495;DHT22;8864;51.970;4.614;2023-02-12T16:42:28;15.60;73.50
17495;DHT22;8864;51.970;4.614;2023-02-12T16:45:08;15.60;73.60
17495;DHT22;8864;51.970;4.614;2023-02-12T16:48:00;15.60;73.60
17495;DHT22;8864;51.970;4.614;2023-02-12T16:50:29;15.60;73.60
17495;DHT22;8864;51.970;4.614;2023-02-12T16:53:31;15.60;73.60